East Genoa, New York
Current Conditions -  °F | °C
As of 8:35 PM on Saturday 25 Oct 2014 (Local Time) from KN03 Reporting Station
Overcast Overcast  
Wind Chill: 14°   Ceiling: 5500
Heat Index: 14°   Visibility: 10mi
Dew Point:   Wind: 7mph
Humidity: 67%   Direction: 280°W
Pressure: 29.62"   Gusts: NA
Location:  42.6513°N, 76.421°W
Report Text: KN03 260035Z AUTO 28006KT 10SM SCT031 BKN055 OVC075 14/08 A2962 RMK AO2
Loading
Personal Weather Stations






























Interactive Weather Map
Tropical Storm Tracking
New forecast layout! Learn more

10-Day Weather Forecast

Advertisements
Track Severe Weather on mobile